createdAt,value
2022-11-30T00:15:49.243Z,5.06
2022-11-30T01:19:21.103Z,5.50
2022-11-30T01:25:21.318Z,5.52
2022-11-30T01:28:15.504Z,5.66
2022-11-30T01:30:43.186Z,5.28
2022-11-30T01:33:11.165Z,5.04
2022-11-30T01:38:13.364Z,4.83
2022-11-30T01:49:45.615Z,5.33
2022-11-30T01:58:36.714Z,5.37
2022-11-30T02:01:06.426Z,5.42
2022-11-30T02:03:48.600Z,4.91
2022-11-30T02:06:15.985Z,5.28
2022-11-30T02:08:43.027Z,5.23
2022-11-30T03:58:37.692Z,5.00
2022-11-30T04:01:08.244Z,4.76
2022-11-30T04:03:35.868Z,4.73
2022-11-30T04:06:11.538Z,4.66
2022-11-30T04:08:39.179Z,5.13
2022-11-30T04:15:17.300Z,4.87
2022-11-30T05:04:51.467Z,5.64
2022-11-30T05:07:19.232Z,5.46
2022-11-30T05:09:46.981Z,5.38
2022-11-30T05:16:11.455Z,5.72
2022-11-30T05:32:15.137Z,5.51
2022-11-30T05:35:05.867Z,5.47
2022-11-30T05:37:33.096Z,5.58
2022-11-30T05:40:00.646Z,5.62
2022-11-30T05:42:28.509Z,5.56
2022-11-30T05:44:55.055Z,5.57
2022-11-30T05:47:22.871Z,5.44
2022-11-30T05:49:55.620Z,5.46
2022-11-30T05:52:22.540Z,5.30
2022-11-30T05:54:49.345Z,5.13
2022-11-30T05:57:16.238Z,5.50
2022-11-30T05:59:42.806Z,5.55
2022-11-30T06:02:09.479Z,5.55
2022-11-30T06:04:36.181Z,5.47
2022-11-30T06:07:02.825Z,5.56
2022-11-30T06:12:09.345Z,5.38
2022-11-30T06:14:35.940Z,5.09
2022-11-30T06:17:02.541Z,5.56
2022-11-30T06:19:29.136Z,5.78
2022-11-30T06:21:58.362Z,5.72
2022-11-30T06:24:29.721Z,5.87
2022-11-30T06:29:38.287Z,5.89
2022-11-30T06:32:10.559Z,5.74
2022-11-30T06:34:37.087Z,5.76
2022-11-30T06:37:06.371Z,6.05
2022-11-30T06:40:06.474Z,5.88
2022-11-30T06:42:36.557Z,6.13
2022-11-30T06:45:03.825Z,6.12
2022-11-30T06:47:31.271Z,6.06
2022-11-30T06:49:57.840Z,6.11
2022-11-30T06:52:24.388Z,6.17
2022-11-30T06:54:51.471Z,5.91
2022-11-30T06:57:18.317Z,5.98
2022-11-30T06:59:46.616Z,6.17
2022-11-30T07:02:18.154Z,6.12
2022-11-30T07:04:46.397Z,6.22
2022-11-30T07:07:15.900Z,6.19
2022-11-30T07:09:42.683Z,6.12
2022-11-30T07:12:10.999Z,6.11
2022-11-30T07:14:37.640Z,6.09
2022-11-30T07:17:05.852Z,6.28
2022-11-30T07:19:43.234Z,6.24
2022-11-30T07:22:19.285Z,6.10
2022-11-30T07:25:10.795Z,6.03
2022-11-30T07:27:37.406Z,6.08
2022-11-30T07:35:55.136Z,6.08
2022-11-30T07:38:22.158Z,6.32
2022-11-30T07:41:10.923Z,6.20
2022-11-30T07:43:37.571Z,6.41
2022-11-30T07:46:05.219Z,6.75
2022-11-30T07:48:35.228Z,6.75
2022-11-30T07:55:07.989Z,6.29
2022-11-30T07:57:34.508Z,6.41
2022-11-30T08:00:01.014Z,6.87
2022-11-30T08:02:27.607Z,6.69
2022-11-30T08:07:56.809Z,6.66
2022-11-30T08:58:38.286Z,6.79
2022-11-30T09:01:13.286Z,6.48
2022-11-30T09:03:41.004Z,6.71
2022-11-30T09:06:12.870Z,6.98
2022-11-30T09:08:43.343Z,6.94
2022-11-30T09:27:36.563Z,7.46
2022-11-30T09:30:03.634Z,7.39
2022-11-30T09:32:30.241Z,8.03
2022-11-30T09:34:56.798Z,7.31
2022-11-30T09:37:25.202Z,7.32
2022-11-30T09:48:18.471Z,8.14
2022-11-30T09:50:48.128Z,7.65
2022-11-30T09:53:43.232Z,7.77
2022-11-30T09:56:22.981Z,7.37
2022-11-30T09:59:14.147Z,7.49
2022-11-30T10:01:44.959Z,7.45
2022-11-30T10:04:24.732Z,8.07
2022-11-30T10:07:24.991Z,8.17
2022-11-30T10:15:38.702Z,7.27
2022-11-30T10:18:24.550Z,7.63
2022-11-30T10:21:12.324Z,7.38
2022-11-30T10:24:38.918Z,7.54
2022-11-30T10:27:16.513Z,7.64
2022-11-30T10:29:44.078Z,7.55
2022-11-30T10:32:22.440Z,7.68
2022-11-30T10:56:13.581Z,8.38
2022-11-30T10:59:02.647Z,8.49
2022-11-30T11:01:35.747Z,7.83
2022-11-30T11:04:14.655Z,8.13
2022-11-30T11:07:38.439Z,8.07
2022-11-30T11:11:08.065Z,8.30
2022-11-30T11:14:22.450Z,8.55
2022-11-30T11:17:28.634Z,8.45
2022-11-30T11:19:55.767Z,8.62
2022-11-30T11:22:27.946Z,8.03
2022-11-30T11:25:09.119Z,8.22
2022-11-30T11:27:41.203Z,8.28
2022-11-30T11:30:26.406Z,8.15
2022-11-30T11:33:03.831Z,8.94
2022-11-30T11:39:26.298Z,8.18
2022-11-30T11:41:55.342Z,8.49
2022-11-30T11:44:25.904Z,8.44
2022-11-30T11:57:53.490Z,8.37
2022-11-30T12:00:23.383Z,8.16
2022-11-30T12:03:06.769Z,8.42
2022-11-30T12:09:41.296Z,8.29
2022-11-30T12:12:13.104Z,8.80
2022-11-30T12:14:39.760Z,8.07
2022-11-30T12:17:23.613Z,7.78
2022-11-30T12:20:11.527Z,7.84
2022-11-30T12:22:44.179Z,7.96
2022-11-30T12:25:13.648Z,7.96
2022-11-30T12:27:40.158Z,8.08
2022-11-30T12:30:15.844Z,8.32
2022-11-30T12:33:20.792Z,8.10
2022-11-30T12:36:08.763Z,7.91
2022-11-30T13:09:06.164Z,8.56
2022-11-30T13:11:38.475Z,8.39
2022-11-30T13:14:22.082Z,8.46
2022-11-30T13:16:56.343Z,8.50
2022-11-30T13:19:40.979Z,8.27
2022-11-30T13:22:28.625Z,8.70
2022-11-30T13:25:09.936Z,8.16
2022-11-30T13:27:46.342Z,8.18
2022-11-30T13:30:34.307Z,8.65
2022-11-30T13:33:38.263Z,8.04
2022-11-30T13:36:07.534Z,7.61
2022-11-30T13:38:37.452Z,8.07
2022-11-30T13:41:07.514Z,8.35
2022-11-30T13:43:44.159Z,8.37
2022-11-30T13:46:11.876Z,7.75
2022-11-30T13:48:40.679Z,8.03
2022-11-30T13:51:08.159Z,8.19
2022-11-30T13:53:37.331Z,8.69
2022-11-30T13:56:34.057Z,8.52
2022-11-30T13:59:25.314Z,8.97
2022-11-30T14:05:14.416Z,8.24
2022-11-30T14:07:41.157Z,9.04
2022-11-30T14:10:46.408Z,9.08
2022-11-30T14:13:14.122Z,8.56
2022-11-30T14:15:43.557Z,8.28
2022-11-30T14:18:10.148Z,8.39
2022-11-30T14:20:45.829Z,8.62
2022-11-30T14:23:19.003Z,8.23
2022-11-30T14:25:51.839Z,8.27
2022-11-30T14:28:31.555Z,8.57
2022-11-30T14:31:00.088Z,8.46
2022-11-30T14:33:44.570Z,8.36
2022-11-30T14:36:12.263Z,8.71
2022-11-30T14:38:42.190Z,8.69
2022-11-30T14:41:41.167Z,8.30
2022-11-30T14:44:14.393Z,8.58
2022-11-30T14:46:41.521Z,9.04
2022-11-30T14:49:19.787Z,8.99
2022-11-30T14:51:50.623Z,8.30
2022-11-30T14:54:44.648Z,8.31
2022-11-30T14:57:30.124Z,7.82
2022-11-30T14:59:57.715Z,8.01
2022-11-30T15:02:28.647Z,7.76
2022-11-30T15:04:56.930Z,7.70
2022-11-30T15:10:09.450Z,8.35
2022-11-30T15:12:39.992Z,7.79
2022-11-30T15:15:14.070Z,7.97
2022-11-30T15:20:38.952Z,8.14
2022-11-30T15:23:05.595Z,8.30
2022-11-30T15:25:39.488Z,8.41
2022-11-30T15:28:07.399Z,7.80
2022-11-30T15:30:38.426Z,7.94
2022-11-30T15:33:05.093Z,8.04
2022-11-30T15:38:08.687Z,7.50
2022-11-30T15:40:35.587Z,7.94
2022-11-30T15:43:02.645Z,7.62
2022-11-30T15:45:36.349Z,7.92
2022-11-30T15:48:03.713Z,7.80
2022-11-30T15:50:45.512Z,7.91
2022-11-30T15:53:47.391Z,8.39
2022-11-30T15:56:27.263Z,8.40
2022-11-30T15:59:04.500Z,8.17
2022-11-30T16:01:32.209Z,8.15
2022-11-30T16:04:00.104Z,7.33
2022-11-30T16:06:33.922Z,8.09
2022-11-30T16:25:54.536Z,7.31
2022-11-30T16:28:23.144Z,7.49
2022-11-30T16:30:50.289Z,7.46
2022-11-30T16:33:22.398Z,7.16
2022-11-30T16:35:56.156Z,7.59
2022-11-30T16:38:38.119Z,7.46
2022-11-30T16:41:23.028Z,7.18
2022-11-30T16:43:51.700Z,7.94
2022-11-30T16:46:33.572Z,8.12
2022-11-30T16:49:47.456Z,7.87
2022-11-30T16:52:30.957Z,8.14
2022-11-30T16:54:57.340Z,8.09
2022-11-30T16:57:23.891Z,8.25
2022-11-30T16:59:50.412Z,7.93
2022-11-30T17:02:22.296Z,8.15
2022-11-30T17:04:49.096Z,7.96
2022-11-30T17:07:15.806Z,8.02
2022-11-30T17:09:42.500Z,8.12
2022-11-30T17:12:09.626Z,7.79
2022-11-30T17:14:36.364Z,7.92
2022-11-30T17:17:03.031Z,7.67
2022-11-30T17:19:29.681Z,7.98
2022-11-30T17:21:56.420Z,8.14
2022-11-30T17:24:22.956Z,8.13
2022-11-30T17:26:49.859Z,8.21
2022-11-30T17:29:16.506Z,8.21
2022-11-30T17:31:43.062Z,8.06
2022-11-30T17:34:09.790Z,8.06
2022-11-30T17:36:36.464Z,8.09
2022-11-30T17:39:09.111Z,8.08
2022-11-30T17:41:35.684Z,8.06
2022-11-30T17:44:02.862Z,7.97
2022-11-30T17:46:29.610Z,8.03
2022-11-30T17:48:59.457Z,8.02
2022-11-30T17:51:26.347Z,8.07
2022-11-30T17:53:53.027Z,7.71
2022-11-30T17:56:19.636Z,7.62
2022-11-30T17:58:49.102Z,7.75
2022-11-30T18:01:19.788Z,7.71
2022-11-30T18:03:47.094Z,7.85
2022-11-30T18:06:14.434Z,7.55
2022-11-30T18:08:41.086Z,7.82
2022-11-30T18:11:20.261Z,7.86
2022-11-30T18:13:48.265Z,7.65
2022-11-30T18:16:18.590Z,7.89
2022-11-30T18:18:48.015Z,7.95
2022-11-30T18:21:16.993Z,8.02
2022-11-30T18:23:43.562Z,8.00
2022-11-30T18:26:16.140Z,8.06
2022-11-30T18:28:47.093Z,8.06
2022-11-30T18:31:13.768Z,8.06
2022-11-30T18:33:40.890Z,7.78
2022-11-30T18:36:08.035Z,7.60
2022-11-30T18:38:37.926Z,7.58
2022-11-30T18:41:06.303Z,7.58
2022-11-30T18:43:33.901Z,7.43
2022-11-30T18:46:19.118Z,7.61
2022-11-30T18:48:49.104Z,7.75
2022-11-30T18:51:24.575Z,7.65
2022-11-30T18:53:57.726Z,7.69
2022-11-30T18:56:26.335Z,7.71
2022-11-30T18:58:58.405Z,7.83
2022-11-30T19:01:25.604Z,7.87
2022-11-30T19:03:57.253Z,7.94
2022-11-30T19:06:25.283Z,8.06
2022-11-30T19:08:51.873Z,8.17
2022-11-30T19:11:18.440Z,8.19
2022-11-30T19:13:45.897Z,8.20
2022-11-30T19:16:16.065Z,8.16
2022-11-30T19:18:45.010Z,8.20
2022-11-30T19:21:17.028Z,8.22
2022-11-30T19:23:44.336Z,8.18
2022-11-30T19:26:12.042Z,8.20
2022-11-30T19:28:39.904Z,8.06
2022-11-30T19:31:17.880Z,8.15
2022-11-30T19:33:47.657Z,8.21
2022-11-30T19:36:17.613Z,8.18
2022-11-30T19:38:44.933Z,8.13
2022-11-30T19:41:14.203Z,8.14
2022-11-30T19:43:41.284Z,7.68
2022-11-30T19:46:16.126Z,7.83
2022-11-30T19:48:43.893Z,7.87
2022-11-30T19:51:16.440Z,7.83
2022-11-30T19:53:44.533Z,7.67
2022-11-30T20:12:23.466Z,7.77
2022-11-30T20:14:53.684Z,7.64
2022-11-30T20:17:20.376Z,7.70
2022-11-30T20:19:46.917Z,7.60
2022-11-30T20:22:13.467Z,7.35
2022-11-30T20:24:40.033Z,6.58
2022-11-30T20:27:07.209Z,6.66
2022-11-30T20:29:33.799Z,7.09
2022-11-30T20:32:00.359Z,6.94
2022-11-30T20:34:32.679Z,7.38
2022-11-30T20:37:00.815Z,6.98
2022-11-30T20:39:27.336Z,7.06
2022-11-30T20:41:53.893Z,6.43
2022-11-30T20:44:20.630Z,6.56
2022-11-30T20:46:47.205Z,7.13
2022-11-30T20:49:21.223Z,7.28
2022-11-30T20:51:48.480Z,7.43
2022-11-30T20:54:16.247Z,7.11
2022-11-30T20:56:43.208Z,7.47
2022-11-30T20:59:15.626Z,7.19
2022-11-30T21:01:44.262Z,7.41
2022-11-30T21:04:11.414Z,7.30
2022-11-30T21:06:38.239Z,7.25
2022-11-30T21:09:04.959Z,7.30
2022-11-30T21:11:31.694Z,7.34
2022-11-30T21:13:58.566Z,7.23
2022-11-30T21:16:28.586Z,7.05
2022-11-30T21:18:59.528Z,6.80
2022-11-30T21:21:30.444Z,7.18
2022-11-30T21:24:00.119Z,7.23
2022-11-30T21:26:32.755Z,6.94
2022-11-30T21:29:01.840Z,7.20
2022-11-30T21:31:28.808Z,6.91
2022-11-30T21:33:55.471Z,6.98
2022-11-30T21:36:23.516Z,7.15
2022-11-30T21:38:58.177Z,7.35
2022-11-30T21:41:29.693Z,6.67
2022-11-30T21:43:56.628Z,6.58
2022-11-30T21:46:23.745Z,6.48
2022-11-30T21:48:50.673Z,6.90
2022-11-30T21:51:21.300Z,7.19
2022-11-30T21:53:59.428Z,7.03
2022-11-30T21:56:28.856Z,7.04
2022-11-30T21:58:56.734Z,7.05
2022-11-30T22:01:27.542Z,7.30
2022-11-30T22:03:55.895Z,6.76
2022-11-30T22:06:25.081Z,6.92
2022-11-30T22:08:51.856Z,7.22
2022-11-30T22:11:23.090Z,7.42
2022-11-30T22:13:53.894Z,7.39
2022-11-30T22:16:22.712Z,7.02
2022-11-30T22:18:53.041Z,6.93
2022-11-30T22:21:30.395Z,7.09
2022-11-30T22:24:09.507Z,6.89
2022-11-30T22:26:38.551Z,7.31
2022-11-30T22:29:13.060Z,7.30
2022-11-30T22:31:42.342Z,6.74
2022-11-30T22:34:09.349Z,7.13
2022-11-30T22:36:37.732Z,7.31
2022-11-30T22:39:19.357Z,7.13
2022-11-30T22:41:51.275Z,7.05
2022-11-30T22:44:21.820Z,7.41
2022-11-30T22:46:48.406Z,7.23
2022-11-30T22:49:20.686Z,7.15
2022-11-30T22:51:48.378Z,7.05
2022-11-30T22:54:15.136Z,6.52
2022-11-30T22:56:41.823Z,6.45
2022-11-30T22:59:12.009Z,6.56
2022-11-30T23:01:45.644Z,7.05
2022-11-30T23:04:15.436Z,6.76
2022-11-30T23:06:43.313Z,7.03
2022-11-30T23:09:16.054Z,6.98
2022-11-30T23:11:42.915Z,6.98
2022-11-30T23:14:09.852Z,6.50
2022-11-30T23:16:37.083Z,6.55
2022-11-30T23:19:04.662Z,6.46
2022-11-30T23:21:50.252Z,6.74
2022-11-30T23:24:22.052Z,6.71
2022-11-30T23:26:49.234Z,6.11
2022-11-30T23:29:17.614Z,6.05
2022-11-30T23:31:45.284Z,6.48
2022-11-30T23:34:16.703Z,6.61
2022-11-30T23:36:43.319Z,6.36
2022-11-30T23:39:12.887Z,6.00
2022-11-30T23:41:39.966Z,6.09
2022-11-30T23:44:07.300Z,5.51
2022-11-30T23:46:34.527Z,6.12
2022-11-30T23:49:01.182Z,5.95
2022-11-30T23:51:27.832Z,6.28
2022-11-30T23:54:03.572Z,6.56
2022-11-30T23:56:30.268Z,6.25
2022-11-30T23:58:56.824Z,6.29
